Central Coast CX #7

Cyclocross: Saturday Dec. 31, 2016 – Schedule
Part of the 2016-17 CCCX Cyclocross Series

Results: Group B

Men B

Place # First Last City Cat Team License Age Laps @ Time Points
1 12 Nate THALHAMER Santa Rosa, CA 5 Rad Racing NW 0457848 14 6 @ 00:36:35 50
2 8 Jordy MALMBERG Aptos, CA 4 Family Cycling Center 0459668 16 6 @ 00:37:03 47
3 35 Erik SCHILLER Half Moon Bay, CA 4 0397700 26 6 @ 00:37:04 45
4 33 Alberto HERMOSO-DIAZ 5 8888214 6 @ 00:37:21 44
5 9 Jose REYNADO 5 Family Cycling 8888036 6 @ 00:37:26 43
6 29 Todd FORD 5 SVCS/Specialized 8888207 6 @ 00:37:30 42
7 36 Brian CRANE 5 8888213 6 @ 00:37:32 41
8 62 Nicholas THIEL 5 Bay Bikes 8888037 6 @ 00:38:52 40
9 4 Travis ALONGI Gilroy, CA 4 Zaavy Factory Racing 0304690 32 6 @ 00:39:18 39
10 64 Scott LAPPE 5 Palo Alto Bicycles 8888032 6 @ 00:40:47 38
Field: 10 of 99

Masters Men 35+ B

Place # First Last City Cat Team License Age Laps @ Time Points
1 316 James BENDER Seattle, WA 3 0122052 41 6 @ 00:38:25 50
2 304 Joseph DESANTE 5 Highway 68 Hillbillies 8888040 6 @ 00:43:22 47
3 315 Shane GIBSON Cupertino, CA 2 0331136 44 5 @ 00:38:44 45
Field: 3 of 100

Masters Men 45+ B

Place # First Last City Cat Team License Age Laps @ Time Points
1 611 Courtney GROSSMAN Salinas, CA 3 0086795 52 6 @ 00:36:50 50
2 661 Jim ATKINSON Los Gatos, CA 5 0517134 55 6 @ 00:36:57 47
3 673 Giles HEALEY Carmel, CA 3 0158386 48 6 @ 00:37:01 45
4 627 Ken CASHION Castro Valley, CA 5 0006395 48 6 @ 00:37:29 44
5 604 Bryan BERRY Boulder Creek, CA 3 0310943 47 6 @ 00:37:30 43
6 686 Jim PERREIRA San Jose, CA 5 0434736 51 6 @ 00:38:02 42
7 660 Brian FERRARIO San Jose, CA 3 0088248 51 6 @ 00:38:13 41
8 652 R FETHERSTON Los Gatos, CA 4 0046408 65 6 @ 00:38:28 40
9 653 John VAHLBERG Mountain View, CA 3 0302136 47 6 @ 00:38:33 39
10 626 Jeff HANE Sunnyvale, CA 2 Team Roaring Mouse 0014909 53 6 @ 00:39:27 38
11 600 Andrew HORVAI San Mateo, CA 4 Pen Velo Racing/Summit Bicycles 0418485 50 6 @ 00:39:47 37
12 608 Robin ROBY 5 Bay Bikes? 8888047 6 @ 00:40:27 36
13 614 Jim ENGLISH 5 Super Pro 8888044 6 @ 00:40:56 35
14 609 Michael SCHALLER 5 Rock Lobster 8888048 6 @ 00:40:56 34
15 616 Shawn VARNER Templeton, CA 4 ChristianCycling Colorado 0096154 48 6 @ 00:41:10 33
16 656 Steve ANDERSON Carmel By The Sea, CA 3 Team Roaring Mouse 0236231 52 6 @ 00:41:41 32
17 663 Scott ZAVACK Morgan Hill, CA 4 0226979 50 5 @ 00:36:36 31
Field: 17 of 100

Single Speed Men B

Place # First Last City Cat Team License Age Laps @ Time Points
1 258 Frances JOSE 5 Team Crash 8888053 5 @ 00:37:25 50
Field: 1 of 100
Table notes: